createdAt,value
2023-04-30T00:03:43.723Z,19.23
2023-04-30T00:07:45.178Z,20.53
2023-04-30T00:11:46.711Z,19.43
2023-04-30T00:15:48.054Z,20.11
2023-04-30T00:19:50.161Z,20.36
2023-04-30T00:23:51.457Z,20.12
2023-04-30T00:27:52.891Z,19.87
2023-04-30T00:31:54.295Z,19.89
2023-04-30T00:35:55.631Z,20.35
2023-04-30T00:39:57.315Z,20.61
2023-04-30T00:43:58.765Z,19.55
2023-04-30T00:48:00.325Z,20.39
2023-04-30T00:52:01.861Z,20.37
2023-04-30T00:56:04.358Z,20.21
2023-04-30T01:00:06.272Z,20.26
2023-04-30T01:04:07.577Z,20.00
2023-04-30T01:08:10.605Z,20.07
2023-04-30T01:12:26.305Z,19.38
2023-04-30T01:16:31.113Z,17.94
2023-04-30T01:20:33.719Z,19.02
2023-04-30T01:24:47.124Z,19.13
2023-04-30T01:28:51.174Z,19.09
2023-04-30T01:32:52.524Z,19.60
2023-04-30T01:37:06.175Z,18.62
2023-04-30T01:41:19.348Z,17.93
2023-04-30T01:45:36.804Z,17.51
2023-04-30T01:50:03.182Z,18.35
2023-04-30T01:54:16.010Z,18.45
2023-04-30T01:58:17.764Z,18.66
2023-04-30T02:02:19.089Z,19.19
2023-04-30T02:06:20.772Z,18.61
2023-04-30T02:10:23.802Z,19.03
2023-04-30T02:14:25.248Z,18.92
2023-04-30T02:18:26.638Z,18.46
2023-04-30T02:22:28.108Z,18.67
2023-04-30T02:26:29.494Z,18.80
2023-04-30T02:30:30.765Z,18.91
2023-04-30T02:34:32.167Z,19.19
2023-04-30T02:38:33.518Z,19.11
2023-04-30T02:42:34.889Z,19.25
2023-04-30T02:46:36.358Z,19.01
2023-04-30T02:50:37.677Z,18.28
2023-04-30T02:54:39.037Z,19.08
2023-04-30T02:58:40.904Z,19.11
2023-04-30T03:02:42.345Z,18.17
2023-04-30T03:06:44.108Z,17.72
2023-04-30T03:10:45.660Z,17.04
2023-04-30T03:14:47.091Z,16.93
2023-04-30T03:18:49.381Z,17.75
2023-04-30T03:22:50.718Z,18.26
2023-04-30T03:26:52.083Z,18.36
2023-04-30T03:30:53.390Z,18.50
2023-04-30T03:34:54.660Z,18.46
2023-04-30T03:38:56.031Z,18.45
2023-04-30T03:42:57.400Z,18.23
2023-04-30T03:46:58.793Z,18.01
2023-04-30T03:51:00.255Z,17.84
2023-04-30T03:55:01.582Z,18.39
2023-04-30T03:59:02.921Z,18.41
2023-04-30T04:03:04.414Z,17.31
2023-04-30T04:07:07.820Z,16.82
2023-04-30T04:11:12.675Z,17.76
2023-04-30T04:15:14.065Z,16.81
2023-04-30T04:19:15.425Z,17.22
2023-04-30T04:23:16.807Z,17.22
2023-04-30T04:27:18.252Z,17.10
2023-04-30T04:31:20.350Z,17.27
2023-04-30T04:35:21.921Z,17.26
2023-04-30T04:39:23.314Z,18.00
2023-04-30T04:43:24.944Z,17.93
2023-04-30T04:47:26.936Z,18.13
2023-04-30T04:51:28.440Z,18.11
2023-04-30T04:55:29.735Z,17.62
2023-04-30T04:59:31.117Z,17.05
2023-04-30T05:03:33.548Z,17.63
2023-04-30T05:07:35.144Z,17.58
2023-04-30T05:11:36.575Z,18.55
2023-04-30T05:15:38.024Z,18.76
2023-04-30T05:19:39.356Z,19.09
2023-04-30T05:23:40.928Z,18.66
2023-04-30T05:27:42.392Z,19.39
2023-04-30T05:31:43.866Z,19.57
2023-04-30T05:35:45.438Z,19.77
2023-04-30T05:39:46.726Z,19.93
2023-04-30T05:43:48.171Z,20.34
2023-04-30T05:47:49.501Z,20.51
2023-04-30T05:51:50.769Z,21.10
2023-04-30T05:55:52.162Z,21.33
2023-04-30T05:59:54.712Z,21.78
2023-04-30T06:03:56.431Z,21.92
2023-04-30T06:07:57.754Z,22.18
2023-04-30T06:11:59.225Z,22.75
2023-04-30T06:16:00.569Z,23.05
2023-04-30T06:20:06.633Z,23.66
2023-04-30T06:24:07.978Z,24.19
2023-04-30T06:28:10.064Z,24.43
2023-04-30T06:32:11.398Z,23.46
2023-04-30T06:36:13.126Z,24.85
2023-04-30T06:40:14.455Z,23.65
2023-04-30T06:44:16.482Z,25.21
2023-04-30T06:48:17.802Z,26.28
2023-04-30T06:52:19.201Z,27.19
2023-04-30T06:56:21.996Z,27.66
2023-04-30T07:00:23.382Z,27.79
2023-04-30T07:04:24.740Z,26.55
2023-04-30T07:08:26.084Z,27.88
2023-04-30T07:12:27.416Z,29.30
2023-04-30T07:16:28.864Z,29.36
2023-04-30T07:20:30.647Z,27.90
2023-04-30T07:24:32.019Z,29.29
2023-04-30T07:28:33.345Z,30.02
2023-04-30T07:32:36.218Z,30.50
2023-04-30T07:36:38.667Z,30.79
2023-04-30T07:40:40.173Z,31.69
2023-04-30T07:44:41.643Z,31.40
2023-04-30T07:48:43.021Z,31.85
2023-04-30T07:52:44.376Z,31.58
2023-04-30T07:56:45.940Z,32.05
2023-04-30T08:00:47.718Z,32.21
2023-04-30T08:04:49.318Z,32.73
2023-04-30T08:08:50.760Z,32.33
2023-04-30T08:12:53.044Z,32.34
2023-04-30T08:16:54.434Z,31.48
2023-04-30T08:20:56.000Z,30.54
2023-04-30T08:24:57.674Z,27.51
2023-04-30T08:28:59.046Z,28.84
2023-04-30T08:33:00.487Z,30.90
2023-04-30T08:37:01.890Z,31.84
2023-04-30T08:41:15.973Z,32.84
2023-04-30T08:45:18.110Z,33.33
2023-04-30T08:49:19.955Z,34.96
2023-04-30T08:53:22.187Z,31.48
2023-04-30T08:57:23.465Z,34.00
2023-04-30T09:01:25.521Z,27.95
2023-04-30T09:05:26.893Z,30.31
2023-04-30T09:09:30.641Z,34.27
2023-04-30T09:13:41.284Z,33.63
2023-04-30T09:17:42.656Z,34.42
2023-04-30T09:21:44.136Z,31.49
2023-04-30T09:25:45.514Z,34.70
2023-04-30T09:29:47.014Z,32.86
2023-04-30T09:33:48.314Z,30.38
2023-04-30T09:37:49.577Z,33.35
2023-04-30T09:41:52.152Z,32.68
2023-04-30T09:45:53.615Z,29.46
2023-04-30T09:49:55.266Z,34.40
2023-04-30T09:53:56.799Z,35.31
2023-04-30T09:57:59.395Z,36.20
2023-04-30T10:02:03.377Z,37.61
2023-04-30T10:06:04.815Z,35.69
2023-04-30T10:10:11.486Z,33.77
2023-04-30T10:14:17.716Z,29.51
2023-04-30T10:18:33.664Z,28.71
2023-04-30T10:22:35.785Z,32.33
2023-04-30T10:26:37.658Z,30.34
2023-04-30T10:30:40.986Z,33.23
2023-04-30T10:34:51.306Z,32.91
2023-04-30T10:38:53.442Z,31.70
2023-04-30T10:42:55.587Z,28.39
2023-04-30T10:47:07.528Z,31.08
2023-04-30T10:51:08.910Z,31.12
2023-04-30T10:55:11.851Z,27.94
2023-04-30T10:59:13.554Z,30.38
2023-04-30T11:03:14.911Z,31.66
2023-04-30T11:07:16.328Z,30.01
2023-04-30T11:11:20.972Z,26.09
2023-04-30T11:15:27.156Z,31.57
2023-04-30T11:19:29.994Z,28.84
2023-04-30T11:27:45.014Z,31.91
2023-04-30T11:31:46.507Z,29.90
2023-04-30T11:35:52.952Z,27.73
2023-04-30T11:39:56.092Z,31.15
2023-04-30T11:43:58.038Z,30.50
2023-04-30T11:47:59.793Z,27.43
2023-04-30T11:52:01.211Z,27.89
2023-04-30T11:56:03.840Z,31.86
2023-04-30T12:00:14.405Z,32.85
2023-04-30T12:04:16.656Z,32.88
2023-04-30T12:08:19.508Z,32.99
2023-04-30T12:12:30.037Z,34.78
2023-04-30T12:16:45.972Z,34.77
2023-04-30T12:20:47.576Z,34.12
2023-04-30T12:24:49.593Z,32.74
2023-04-30T12:28:52.914Z,32.55
2023-04-30T12:32:57.958Z,32.23
2023-04-30T12:36:59.861Z,27.63
2023-04-30T12:41:04.756Z,27.12
2023-04-30T12:45:06.755Z,28.36
2023-04-30T12:49:08.421Z,29.55
2023-04-30T12:53:09.970Z,30.79
2023-04-30T12:57:12.904Z,29.80
2023-04-30T13:01:18.292Z,27.18
2023-04-30T13:05:19.763Z,28.16
2023-04-30T13:09:21.872Z,28.02
2023-04-30T13:13:23.238Z,29.20
2023-04-30T13:17:26.348Z,27.92
2023-04-30T13:21:27.947Z,30.70
2023-04-30T13:25:32.209Z,30.48
2023-04-30T13:29:33.786Z,29.99
2023-04-30T13:33:35.075Z,27.89
2023-04-30T13:37:36.507Z,27.55
2023-04-30T13:41:37.858Z,26.74
2023-04-30T13:45:39.297Z,29.67
2023-04-30T13:49:40.559Z,30.09
2023-04-30T13:53:41.914Z,27.61
2023-04-30T13:57:43.174Z,28.14
2023-04-30T14:01:44.525Z,29.24
2023-04-30T14:05:46.625Z,29.63
2023-04-30T14:09:48.012Z,28.98
2023-04-30T14:13:49.318Z,27.05
2023-04-30T14:17:51.755Z,28.78
2023-04-30T14:21:53.133Z,27.12
2023-04-30T14:25:54.859Z,28.72
2023-04-30T14:29:56.848Z,29.59
2023-04-30T14:33:58.493Z,27.87
2023-04-30T14:37:59.851Z,29.85
2023-04-30T14:42:01.678Z,29.38
2023-04-30T14:46:03.360Z,29.96
2023-04-30T14:50:05.107Z,30.31
2023-04-30T14:54:06.544Z,30.39
2023-04-30T14:58:07.844Z,26.55
2023-04-30T15:02:09.344Z,28.43
2023-04-30T15:06:11.076Z,29.66
2023-04-30T15:10:12.659Z,27.24
2023-04-30T15:14:14.093Z,28.44
2023-04-30T15:18:15.804Z,26.97
2023-04-30T15:22:17.285Z,27.13
2023-04-30T15:26:18.831Z,28.56
2023-04-30T15:30:21.786Z,28.23
2023-04-30T15:34:23.145Z,29.60
2023-04-30T15:38:24.786Z,27.68
2023-04-30T15:42:26.133Z,28.59
2023-04-30T15:46:27.606Z,28.93
2023-04-30T15:50:29.842Z,27.86
2023-04-30T15:54:31.341Z,27.60
2023-04-30T15:58:32.781Z,27.17
2023-04-30T16:02:35.711Z,27.91
2023-04-30T16:06:37.584Z,27.23
2023-04-30T16:10:39.221Z,27.43
2023-04-30T16:14:41.094Z,28.83
2023-04-30T16:18:42.458Z,27.55
2023-04-30T16:22:43.898Z,26.94
2023-04-30T16:26:45.282Z,28.15
2023-04-30T16:30:46.813Z,27.58
2023-04-30T16:34:48.135Z,28.27
2023-04-30T16:38:49.595Z,26.66
2023-04-30T16:42:50.950Z,28.22
2023-04-30T16:46:52.276Z,27.85
2023-04-30T16:50:53.604Z,28.59
2023-04-30T16:54:55.014Z,27.68
2023-04-30T16:58:56.424Z,27.87
2023-04-30T17:02:57.896Z,27.76
2023-04-30T17:07:00.328Z,28.19
2023-04-30T17:11:01.819Z,26.52
2023-04-30T17:15:04.249Z,26.43
2023-04-30T17:19:05.502Z,27.44
2023-04-30T17:23:07.336Z,26.72
2023-04-30T17:27:08.959Z,26.48
2023-04-30T17:31:10.468Z,26.67
2023-04-30T17:35:11.939Z,27.10
2023-04-30T17:39:13.271Z,26.38
2023-04-30T17:43:14.587Z,27.87
2023-04-30T17:47:16.369Z,27.76
2023-04-30T17:51:18.345Z,27.27
2023-04-30T17:55:19.639Z,26.72
2023-04-30T17:59:21.084Z,26.13
2023-04-30T18:03:22.588Z,26.55
2023-04-30T18:07:24.172Z,26.46
2023-04-30T18:11:28.190Z,26.39
2023-04-30T18:15:29.872Z,26.55
2023-04-30T18:19:32.332Z,25.94
2023-04-30T18:23:33.744Z,25.22
2023-04-30T18:27:35.057Z,25.89
2023-04-30T18:31:37.301Z,26.59
2023-04-30T18:35:38.873Z,24.91
2023-04-30T18:39:40.985Z,25.98
2023-04-30T18:43:42.807Z,25.96
2023-04-30T18:47:44.581Z,26.06
2023-04-30T18:51:46.330Z,26.28
2023-04-30T18:55:47.782Z,25.04
2023-04-30T18:59:49.432Z,24.77
2023-04-30T19:03:50.961Z,25.34
2023-04-30T19:07:52.621Z,25.15
2023-04-30T19:11:53.965Z,23.44
2023-04-30T19:15:56.010Z,24.69
2023-04-30T19:19:58.785Z,24.50
2023-04-30T19:24:00.235Z,23.63
2023-04-30T19:28:01.685Z,24.83
2023-04-30T19:32:04.537Z,24.31
2023-04-30T19:36:05.868Z,23.98
2023-04-30T19:40:10.439Z,24.77
2023-04-30T19:44:11.920Z,25.48
2023-04-30T19:48:14.650Z,24.31
2023-04-30T19:52:16.117Z,24.68
2023-04-30T19:56:17.857Z,24.68
2023-04-30T20:00:19.244Z,23.31
2023-04-30T20:04:20.880Z,23.85
2023-04-30T20:08:23.230Z,24.30
2023-04-30T20:12:24.652Z,23.79
2023-04-30T20:16:26.039Z,23.37
2023-04-30T20:20:28.977Z,24.28
2023-04-30T20:24:30.250Z,23.17
2023-04-30T20:28:31.772Z,24.30
2023-04-30T20:32:34.716Z,23.63
2023-04-30T20:36:36.172Z,23.75
2023-04-30T20:40:40.350Z,23.65
2023-04-30T20:44:41.627Z,23.97
2023-04-30T20:48:43.035Z,23.59
2023-04-30T20:52:44.337Z,23.86
2023-04-30T20:56:47.075Z,23.41
2023-04-30T21:00:49.955Z,23.93
2023-04-30T21:04:51.358Z,22.96
2023-04-30T21:08:52.828Z,23.49
2023-04-30T21:12:54.507Z,23.81
2023-04-30T21:16:56.284Z,23.73
2023-04-30T21:21:04.826Z,23.08
2023-04-30T21:25:07.203Z,23.16
2023-04-30T21:29:09.325Z,22.35
2023-04-30T21:33:10.743Z,23.47
2023-04-30T21:37:12.203Z,23.63
2023-04-30T21:41:14.666Z,23.93
2023-04-30T21:45:16.056Z,23.62
2023-04-30T21:49:17.481Z,23.57
2023-04-30T21:53:18.837Z,23.77
2023-04-30T21:57:20.266Z,23.40
2023-04-30T22:01:24.315Z,24.15
2023-04-30T22:05:26.015Z,23.47
2023-04-30T22:09:27.415Z,24.06
2023-04-30T22:13:29.249Z,24.11
2023-04-30T22:17:30.710Z,24.29
2023-04-30T22:21:32.318Z,24.11
2023-04-30T22:25:33.640Z,23.97
2023-04-30T22:29:35.061Z,24.40
2023-04-30T22:33:36.920Z,24.40
2023-04-30T22:37:39.199Z,24.22
2023-04-30T22:41:41.618Z,24.46
2023-04-30T22:45:43.087Z,24.42
2023-04-30T22:49:44.773Z,24.42
2023-04-30T22:53:46.232Z,24.15
2023-04-30T22:57:47.577Z,24.19
2023-04-30T23:01:49.265Z,24.26
2023-04-30T23:05:51.568Z,24.19
2023-04-30T23:09:53.271Z,24.28
2023-04-30T23:13:55.661Z,24.31
2023-04-30T23:17:58.165Z,24.40
2023-04-30T23:21:59.683Z,24.16
2023-04-30T23:26:01.143Z,24.31
2023-04-30T23:30:03.497Z,24.12
2023-04-30T23:34:04.800Z,24.13
2023-04-30T23:38:06.162Z,24.31
2023-04-30T23:42:07.981Z,24.31
2023-04-30T23:46:09.412Z,24.08
2023-04-30T23:50:11.704Z,24.19
2023-04-30T23:54:13.210Z,24.13
2023-04-30T23:58:14.533Z,24.16
